sensor_id;sensor_type;location;lat;lon;timestamp;P1;durP1;ratioP1;P2;durP2;ratioP2
23702;SDS011;12030;50.376;8.762;2023-04-24T00:02:12;2.60;;;1.37;;
23702;SDS011;12030;50.376;8.762;2023-04-24T00:04:38;1.80;;;1.27;;
23702;SDS011;12030;50.376;8.762;2023-04-24T00:07:09;2.43;;;1.43;;
23702;SDS011;12030;50.376;8.762;2023-04-24T00:09:35;1.23;;;1.13;;
23702;SDS011;12030;50.376;8.762;2023-04-24T00:12:01;1.47;;;1.20;;
23702;SDS011;12030;50.376;8.762;2023-04-24T00:14:29;1.13;;;1.00;;
23702;SDS011;12030;50.376;8.762;2023-04-24T00:16:55;1.30;;;1.20;;
23702;SDS011;12030;50.376;8.762;2023-04-24T00:19:21;1.33;;;1.10;;
23702;SDS011;12030;50.376;8.762;2023-04-24T00:21:46;2.07;;;1.40;;
23702;SDS011;12030;50.376;8.762;2023-04-24T00:24:14;2.10;;;1.23;;
23702;SDS011;12030;50.376;8.762;2023-04-24T00:26:41;2.67;;;1.20;;
23702;SDS011;12030;50.376;8.762;2023-04-24T00:29:06;2.50;;;1.07;;
23702;SDS011;12030;50.376;8.762;2023-04-24T00:31:32;2.67;;;1.10;;
23702;SDS011;12030;50.376;8.762;2023-04-24T00:33:59;1.63;;;0.90;;
23702;SDS011;12030;50.376;8.762;2023-04-24T00:36:25;1.83;;;1.00;;
23702;SDS011;12030;50.376;8.762;2023-04-24T00:38:52;1.83;;;1.00;;
23702;SDS011;12030;50.376;8.762;2023-04-24T00:41:17;2.20;;;1.20;;
23702;SDS011;12030;50.376;8.762;2023-04-24T00:43:43;1.20;;;0.90;;
23702;SDS011;12030;50.376;8.762;2023-04-24T00:46:09;1.50;;;0.90;;
23702;SDS011;12030;50.376;8.762;2023-04-24T00:48:35;1.57;;;0.90;;
23702;SDS011;12030;50.376;8.762;2023-04-24T00:51:04;3.20;;;1.10;;
23702;SDS011;12030;50.376;8.762;2023-04-24T00:53:29;2.63;;;0.80;;
23702;SDS011;12030;50.376;8.762;2023-04-24T00:55:55;4.63;;;0.90;;
23702;SDS011;12030;50.376;8.762;2023-04-24T00:58:21;2.13;;;0.70;;
23702;SDS011;12030;50.376;8.762;2023-04-24T01:00:48;1.27;;;0.83;;
23702;SDS011;12030;50.376;8.762;2023-04-24T01:03:15;2.50;;;0.83;;
23702;SDS011;12030;50.376;8.762;2023-04-24T01:05:41;3.70;;;0.87;;
23702;SDS011;12030;50.376;8.762;2023-04-24T01:08:07;2.67;;;0.73;;
23702;SDS011;12030;50.376;8.762;2023-04-24T01:10:33;1.77;;;0.67;;
23702;SDS011;12030;50.376;8.762;2023-04-24T01:13:00;0.90;;;0.60;;
23702;SDS011;12030;50.376;8.762;2023-04-24T01:15:26;1.30;;;0.70;;
23702;SDS011;12030;50.376;8.762;2023-04-24T01:17:51;3.17;;;1.03;;
23702;SDS011;12030;50.376;8.762;2023-04-24T01:20:17;2.27;;;1.00;;
23702;SDS011;12030;50.376;8.762;2023-04-24T01:22:43;1.90;;;0.97;;
23702;SDS011;12030;50.376;8.762;2023-04-24T01:25:08;1.63;;;0.70;;
23702;SDS011;12030;50.376;8.762;2023-04-24T01:27:34;1.40;;;0.90;;
23702;SDS011;12030;50.376;8.762;2023-04-24T01:29:59;1.70;;;0.87;;
23702;SDS011;12030;50.376;8.762;2023-04-24T01:32:25;2.60;;;0.80;;
23702;SDS011;12030;50.376;8.762;2023-04-24T01:34:51;1.20;;;0.77;;
23702;SDS011;12030;50.376;8.762;2023-04-24T01:37:17;2.40;;;1.07;;
23702;SDS011;12030;50.376;8.762;2023-04-24T01:39:43;1.80;;;0.93;;
23702;SDS011;12030;50.376;8.762;2023-04-24T01:42:08;1.87;;;1.00;;
23702;SDS011;12030;50.376;8.762;2023-04-24T01:44:34;2.47;;;1.00;;
23702;SDS011;12030;50.376;8.762;2023-04-24T01:47:00;2.63;;;0.80;;
23702;SDS011;12030;50.376;8.762;2023-04-24T01:49:26;2.80;;;0.90;;
23702;SDS011;12030;50.376;8.762;2023-04-24T01:51:52;2.27;;;0.90;;
23702;SDS011;12030;50.376;8.762;2023-04-24T01:54:17;1.93;;;0.80;;
23702;SDS011;12030;50.376;8.762;2023-04-24T01:56:43;2.07;;;0.93;;
23702;SDS011;12030;50.376;8.762;2023-04-24T01:59:10;2.47;;;0.97;;
23702;SDS011;12030;50.376;8.762;2023-04-24T02:01:37;1.87;;;0.90;;
23702;SDS011;12030;50.376;8.762;2023-04-24T02:04:04;1.60;;;0.87;;
23702;SDS011;12030;50.376;8.762;2023-04-24T02:06:30;2.03;;;1.03;;
23702;SDS011;12030;50.376;8.762;2023-04-24T02:08:56;3.63;;;0.80;;
23702;SDS011;12030;50.376;8.762;2023-04-24T02:11:23;2.83;;;1.00;;
23702;SDS011;12030;50.376;8.762;2023-04-24T02:13:48;1.13;;;0.63;;
23702;SDS011;12030;50.376;8.762;2023-04-24T02:16:15;1.80;;;0.90;;
23702;SDS011;12030;50.376;8.762;2023-04-24T02:18:40;1.47;;;0.77;;
23702;SDS011;12030;50.376;8.762;2023-04-24T02:21:06;1.27;;;1.00;;
23702;SDS011;12030;50.376;8.762;2023-04-24T02:23:31;1.30;;;1.00;;
23702;SDS011;12030;50.376;8.762;2023-04-24T02:25:57;2.40;;;1.10;;
23702;SDS011;12030;50.376;8.762;2023-04-24T02:28:22;1.47;;;0.90;;
23702;SDS011;12030;50.376;8.762;2023-04-24T02:30:48;2.53;;;1.00;;
23702;SDS011;12030;50.376;8.762;2023-04-24T02:33:13;1.90;;;1.00;;
23702;SDS011;12030;50.376;8.762;2023-04-24T02:35:39;2.47;;;0.97;;
23702;SDS011;12030;50.376;8.762;2023-04-24T02:38:05;2.63;;;0.90;;
23702;SDS011;12030;50.376;8.762;2023-04-24T02:40:30;1.77;;;1.00;;
23702;SDS011;12030;50.376;8.762;2023-04-24T02:42:56;2.13;;;1.13;;
23702;SDS011;12030;50.376;8.762;2023-04-24T02:45:22;2.47;;;1.10;;
23702;SDS011;12030;50.376;8.762;2023-04-24T02:47:47;6.67;;;1.20;;
23702;SDS011;12030;50.376;8.762;2023-04-24T02:50:13;2.87;;;1.23;;
23702;SDS011;12030;50.376;8.762;2023-04-24T02:52:38;2.87;;;1.33;;
23702;SDS011;12030;50.376;8.762;2023-04-24T02:55:04;2.53;;;1.30;;
23702;SDS011;12030;50.376;8.762;2023-04-24T02:57:30;2.70;;;1.70;;
23702;SDS011;12030;50.376;8.762;2023-04-24T02:59:55;2.03;;;1.50;;
23702;SDS011;12030;50.376;8.762;2023-04-24T03:02:21;2.73;;;1.60;;
23702;SDS011;12030;50.376;8.762;2023-04-24T03:04:46;2.57;;;1.60;;
23702;SDS011;12030;50.376;8.762;2023-04-24T03:07:15;2.43;;;1.83;;
23702;SDS011;12030;50.376;8.762;2023-04-24T03:09:41;2.73;;;1.80;;
23702;SDS011;12030;50.376;8.762;2023-04-24T03:12:06;3.30;;;2.13;;
23702;SDS011;12030;50.376;8.762;2023-04-24T03:14:32;3.40;;;1.80;;
23702;SDS011;12030;50.376;8.762;2023-04-24T03:16:57;3.00;;;1.80;;
23702;SDS011;12030;50.376;8.762;2023-04-24T03:19:23;3.37;;;2.27;;
23702;SDS011;12030;50.376;8.762;2023-04-24T03:21:49;3.97;;;2.30;;
23702;SDS011;12030;50.376;8.762;2023-04-24T03:24:14;2.57;;;1.97;;
23702;SDS011;12030;50.376;8.762;2023-04-24T03:26:40;2.47;;;2.20;;
23702;SDS011;12030;50.376;8.762;2023-04-24T03:29:05;3.97;;;2.33;;
23702;SDS011;12030;50.376;8.762;2023-04-24T03:31:31;2.93;;;2.20;;
23702;SDS011;12030;50.376;8.762;2023-04-24T03:33:56;2.50;;;1.73;;
23702;SDS011;12030;50.376;8.762;2023-04-24T03:36:22;4.50;;;1.80;;
23702;SDS011;12030;50.376;8.762;2023-04-24T03:38:47;2.57;;;1.97;;
23702;SDS011;12030;50.376;8.762;2023-04-24T03:41:13;1.83;;;1.53;;
23702;SDS011;12030;50.376;8.762;2023-04-24T03:43:38;4.53;;;1.63;;
23702;SDS011;12030;50.376;8.762;2023-04-24T03:46:05;1.70;;;1.60;;
23702;SDS011;12030;50.376;8.762;2023-04-24T03:48:30;4.03;;;1.80;;
23702;SDS011;12030;50.376;8.762;2023-04-24T03:50:56;2.97;;;1.63;;
23702;SDS011;12030;50.376;8.762;2023-04-24T03:53:21;1.90;;;1.57;;
23702;SDS011;12030;50.376;8.762;2023-04-24T03:55:47;4.03;;;1.67;;
23702;SDS011;12030;50.376;8.762;2023-04-24T03:58:12;4.40;;;1.73;;
23702;SDS011;12030;50.376;8.762;2023-04-24T04:00:42;1.67;;;1.53;;
23702;SDS011;12030;50.376;8.762;2023-04-24T04:03:09;1.73;;;1.37;;
23702;SDS011;12030;50.376;8.762;2023-04-24T04:05:34;2.20;;;1.20;;
23702;SDS011;12030;50.376;8.762;2023-04-24T04:08:00;1.00;;;0.90;;
23702;SDS011;12030;50.376;8.762;2023-04-24T04:10:25;1.50;;;1.00;;
23702;SDS011;12030;50.376;8.762;2023-04-24T04:12:51;1.90;;;1.00;;
23702;SDS011;12030;50.376;8.762;2023-04-24T04:15:16;1.40;;;1.10;;
23702;SDS011;12030;50.376;8.762;2023-04-24T04:17:42;1.67;;;1.10;;
23702;SDS011;12030;50.376;8.762;2023-04-24T04:20:08;2.40;;;0.80;;
23702;SDS011;12030;50.376;8.762;2023-04-24T04:22:36;2.23;;;1.07;;
23702;SDS011;12030;50.376;8.762;2023-04-24T04:25:02;1.07;;;0.93;;
23702;SDS011;12030;50.376;8.762;2023-04-24T04:27:28;1.30;;;0.90;;
23702;SDS011;12030;50.376;8.762;2023-04-24T04:29:56;1.00;;;0.90;;
23702;SDS011;12030;50.376;8.762;2023-04-24T04:32:24;1.73;;;0.80;;
23702;SDS011;12030;50.376;8.762;2023-04-24T04:34:49;0.70;;;0.70;;
23702;SDS011;12030;50.376;8.762;2023-04-24T04:37:18;1.63;;;0.90;;
23702;SDS011;12030;50.376;8.762;2023-04-24T04:39:43;1.40;;;0.80;;
23702;SDS011;12030;50.376;8.762;2023-04-24T04:42:09;1.27;;;0.97;;
23702;SDS011;12030;50.376;8.762;2023-04-24T04:44:35;2.57;;;1.03;;
23702;SDS011;12030;50.376;8.762;2023-04-24T04:47:01;1.63;;;1.03;;
23702;SDS011;12030;50.376;8.762;2023-04-24T04:49:30;1.27;;;0.80;;
23702;SDS011;12030;50.376;8.762;2023-04-24T04:51:56;1.17;;;0.90;;
23702;SDS011;12030;50.376;8.762;2023-04-24T04:54:22;1.63;;;1.10;;
23702;SDS011;12030;50.376;8.762;2023-04-24T04:56:49;1.23;;;1.00;;
23702;SDS011;12030;50.376;8.762;2023-04-24T04:59:15;1.37;;;1.10;;
23702;SDS011;12030;50.376;8.762;2023-04-24T05:01:41;1.73;;;1.10;;
23702;SDS011;12030;50.376;8.762;2023-04-24T05:04:06;0.87;;;0.87;;
23702;SDS011;12030;50.376;8.762;2023-04-24T05:06:32;1.63;;;1.10;;
23702;SDS011;12030;50.376;8.762;2023-04-24T05:08:57;1.23;;;0.87;;
23702;SDS011;12030;50.376;8.762;2023-04-24T05:11:23;2.60;;;0.97;;
23702;SDS011;12030;50.376;8.762;2023-04-24T05:13:49;1.73;;;1.43;;
23702;SDS011;12030;50.376;8.762;2023-04-24T05:16:14;1.53;;;1.20;;
23702;SDS011;12030;50.376;8.762;2023-04-24T05:18:40;1.43;;;1.13;;
23702;SDS011;12030;50.376;8.762;2023-04-24T05:21:06;1.40;;;0.93;;
23702;SDS011;12030;50.376;8.762;2023-04-24T05:23:31;1.40;;;1.27;;
23702;SDS011;12030;50.376;8.762;2023-04-24T05:25:57;1.23;;;1.00;;
23702;SDS011;12030;50.376;8.762;2023-04-24T05:28:22;1.83;;;1.43;;
23702;SDS011;12030;50.376;8.762;2023-04-24T05:30:48;2.30;;;1.17;;
23702;SDS011;12030;50.376;8.762;2023-04-24T05:33:13;3.13;;;1.20;;
23702;SDS011;12030;50.376;8.762;2023-04-24T05:35:40;1.43;;;1.20;;
23702;SDS011;12030;50.376;8.762;2023-04-24T05:38:10;1.27;;;1.17;;
23702;SDS011;12030;50.376;8.762;2023-04-24T05:40:36;2.10;;;1.03;;
23702;SDS011;12030;50.376;8.762;2023-04-24T05:43:01;1.93;;;1.10;;
23702;SDS011;12030;50.376;8.762;2023-04-24T05:45:27;1.43;;;1.17;;
23702;SDS011;12030;50.376;8.762;2023-04-24T05:47:52;2.00;;;1.13;;
23702;SDS011;12030;50.376;8.762;2023-04-24T05:50:18;1.17;;;1.00;;
23702;SDS011;12030;50.376;8.762;2023-04-24T05:52:44;2.70;;;1.20;;
23702;SDS011;12030;50.376;8.762;2023-04-24T05:55:09;2.20;;;0.90;;
23702;SDS011;12030;50.376;8.762;2023-04-24T05:57:35;1.20;;;1.10;;
23702;SDS011;12030;50.376;8.762;2023-04-24T06:00:00;1.13;;;1.00;;
23702;SDS011;12030;50.376;8.762;2023-04-24T06:02:26;1.30;;;1.20;;
23702;SDS011;12030;50.376;8.762;2023-04-24T06:04:52;1.67;;;1.30;;
23702;SDS011;12030;50.376;8.762;2023-04-24T06:07:18;1.93;;;1.23;;
23702;SDS011;12030;50.376;8.762;2023-04-24T06:09:43;2.10;;;1.27;;
23702;SDS011;12030;50.376;8.762;2023-04-24T06:12:09;1.53;;;1.10;;
23702;SDS011;12030;50.376;8.762;2023-04-24T06:14:34;2.23;;;1.30;;
23702;SDS011;12030;50.376;8.762;2023-04-24T06:17:00;1.20;;;1.10;;
23702;SDS011;12030;50.376;8.762;2023-04-24T06:19:25;2.33;;;1.60;;
23702;SDS011;12030;50.376;8.762;2023-04-24T06:21:51;3.73;;;1.60;;
23702;SDS011;12030;50.376;8.762;2023-04-24T06:24:17;1.50;;;1.40;;
23702;SDS011;12030;50.376;8.762;2023-04-24T06:26:42;2.07;;;1.70;;
23702;SDS011;12030;50.376;8.762;2023-04-24T06:29:08;1.50;;;1.13;;
23702;SDS011;12030;50.376;8.762;2023-04-24T06:31:33;3.10;;;1.23;;
23702;SDS011;12030;50.376;8.762;2023-04-24T06:34:02;2.03;;;1.20;;
23702;SDS011;12030;50.376;8.762;2023-04-24T06:36:28;2.40;;;1.50;;
23702;SDS011;12030;50.376;8.762;2023-04-24T06:38:54;2.30;;;1.27;;
23702;SDS011;12030;50.376;8.762;2023-04-24T06:41:19;1.40;;;1.30;;
23702;SDS011;12030;50.376;8.762;2023-04-24T06:43:45;2.23;;;1.57;;
23702;SDS011;12030;50.376;8.762;2023-04-24T06:46:10;3.97;;;1.50;;
23702;SDS011;12030;50.376;8.762;2023-04-24T06:48:36;2.70;;;2.00;;
23702;SDS011;12030;50.376;8.762;2023-04-24T06:51:02;2.37;;;1.83;;
23702;SDS011;12030;50.376;8.762;2023-04-24T06:53:28;2.40;;;1.90;;
23702;SDS011;12030;50.376;8.762;2023-04-24T06:55:53;4.53;;;2.53;;
23702;SDS011;12030;50.376;8.762;2023-04-24T06:58:19;2.33;;;1.80;;
23702;SDS011;12030;50.376;8.762;2023-04-24T07:00:45;2.97;;;2.00;;
23702;SDS011;12030;50.376;8.762;2023-04-24T07:03:11;2.93;;;1.90;;
23702;SDS011;12030;50.376;8.762;2023-04-24T07:05:36;4.80;;;2.37;;
23702;SDS011;12030;50.376;8.762;2023-04-24T07:08:03;2.10;;;1.90;;
23702;SDS011;12030;50.376;8.762;2023-04-24T07:10:28;3.20;;;2.50;;
23702;SDS011;12030;50.376;8.762;2023-04-24T07:12:55;2.67;;;2.47;;
23702;SDS011;12030;50.376;8.762;2023-04-24T07:15:21;2.20;;;2.00;;
23702;SDS011;12030;50.376;8.762;2023-04-24T07:17:48;2.80;;;2.27;;
23702;SDS011;12030;50.376;8.762;2023-04-24T07:20:14;3.57;;;2.10;;
23702;SDS011;12030;50.376;8.762;2023-04-24T07:22:40;2.40;;;2.20;;
23702;SDS011;12030;50.376;8.762;2023-04-24T07:25:06;3.17;;;2.30;;
23702;SDS011;12030;50.376;8.762;2023-04-24T07:27:33;2.93;;;2.30;;
23702;SDS011;12030;50.376;8.762;2023-04-24T07:29:59;1.90;;;1.80;;
23702;SDS011;12030;50.376;8.762;2023-04-24T07:32:25;2.87;;;2.50;;
23702;SDS011;12030;50.376;8.762;2023-04-24T07:34:51;3.17;;;1.90;;
23702;SDS011;12030;50.376;8.762;2023-04-24T07:37:16;2.17;;;1.57;;
23702;SDS011;12030;50.376;8.762;2023-04-24T07:39:42;3.30;;;1.70;;
23702;SDS011;12030;50.376;8.762;2023-04-24T07:42:08;2.10;;;1.47;;
23702;SDS011;12030;50.376;8.762;2023-04-24T07:44:33;1.47;;;1.37;;
23702;SDS011;12030;50.376;8.762;2023-04-24T07:46:59;2.93;;;1.70;;
23702;SDS011;12030;50.376;8.762;2023-04-24T07:49:24;1.97;;;1.30;;
23702;SDS011;12030;50.376;8.762;2023-04-24T07:51:50;4.40;;;1.70;;
23702;SDS011;12030;50.376;8.762;2023-04-24T07:54:15;2.70;;;1.43;;
23702;SDS011;12030;50.376;8.762;2023-04-24T07:56:41;1.50;;;1.30;;
23702;SDS011;12030;50.376;8.762;2023-04-24T07:59:08;1.30;;;1.20;;
23702;SDS011;12030;50.376;8.762;2023-04-24T08:01:34;1.37;;;1.20;;
23702;SDS011;12030;50.376;8.762;2023-04-24T08:04:00;2.13;;;1.60;;
23702;SDS011;12030;50.376;8.762;2023-04-24T08:06:26;2.43;;;1.47;;
23702;SDS011;12030;50.376;8.762;2023-04-24T08:08:58;2.07;;;1.57;;
23702;SDS011;12030;50.376;8.762;2023-04-24T08:11:24;3.40;;;1.23;;
23702;SDS011;12030;50.376;8.762;2023-04-24T08:13:50;1.63;;;1.33;;
23702;SDS011;12030;50.376;8.762;2023-04-24T08:16:16;2.40;;;1.47;;
23702;SDS011;12030;50.376;8.762;2023-04-24T08:18:42;2.70;;;1.50;;
23702;SDS011;12030;50.376;8.762;2023-04-24T08:21:07;1.40;;;1.30;;
23702;SDS011;12030;50.376;8.762;2023-04-24T08:23:33;1.63;;;1.23;;
23702;SDS011;12030;50.376;8.762;2023-04-24T08:25:58;1.83;;;1.27;;
23702;SDS011;12030;50.376;8.762;2023-04-24T08:28:24;3.40;;;1.30;;
23702;SDS011;12030;50.376;8.762;2023-04-24T08:30:50;1.93;;;1.20;;
23702;SDS011;12030;50.376;8.762;2023-04-24T08:33:22;1.50;;;1.30;;
23702;SDS011;12030;50.376;8.762;2023-04-24T08:35:48;3.47;;;1.57;;
23702;SDS011;12030;50.376;8.762;2023-04-24T08:38:14;1.93;;;1.17;;
23702;SDS011;12030;50.376;8.762;2023-04-24T08:40:40;1.93;;;1.00;;
23702;SDS011;12030;50.376;8.762;2023-04-24T08:43:06;2.30;;;1.40;;
23702;SDS011;12030;50.376;8.762;2023-04-24T08:45:32;2.83;;;1.40;;
23702;SDS011;12030;50.376;8.762;2023-04-24T08:47:58;2.33;;;1.30;;
23702;SDS011;12030;50.376;8.762;2023-04-24T08:50:24;1.10;;;1.00;;
23702;SDS011;12030;50.376;8.762;2023-04-24T08:52:51;1.20;;;0.90;;
23702;SDS011;12030;50.376;8.762;2023-04-24T08:55:21;2.47;;;1.03;;
23702;SDS011;12030;50.376;8.762;2023-04-24T08:57:50;1.57;;;1.10;;
23702;SDS011;12030;50.376;8.762;2023-04-24T09:00:18;1.40;;;1.13;;
23702;SDS011;12030;50.376;8.762;2023-04-24T09:02:47;1.17;;;1.00;;
23702;SDS011;12030;50.376;8.762;2023-04-24T09:05:15;1.30;;;1.20;;
23702;SDS011;12030;50.376;8.762;2023-04-24T09:07:42;1.47;;;0.80;;
23702;SDS011;12030;50.376;8.762;2023-04-24T09:10:11;2.03;;;1.13;;
23702;SDS011;12030;50.376;8.762;2023-04-24T09:12:37;1.23;;;1.00;;
23702;SDS011;12030;50.376;8.762;2023-04-24T09:15:03;1.30;;;1.03;;
23702;SDS011;12030;50.376;8.762;2023-04-24T09:17:30;1.00;;;0.90;;
23702;SDS011;12030;50.376;8.762;2023-04-24T09:19:55;1.00;;;0.90;;
23702;SDS011;12030;50.376;8.762;2023-04-24T09:22:21;1.33;;;1.00;;
23702;SDS011;12030;50.376;8.762;2023-04-24T09:24:47;1.13;;;0.80;;
23702;SDS011;12030;50.376;8.762;2023-04-24T09:27:13;2.47;;;0.87;;
23702;SDS011;12030;50.376;8.762;2023-04-24T09:29:44;2.07;;;0.90;;
23702;SDS011;12030;50.376;8.762;2023-04-24T09:32:20;1.70;;;0.90;;
23702;SDS011;12030;50.376;8.762;2023-04-24T09:34:47;0.80;;;0.80;;
23702;SDS011;12030;50.376;8.762;2023-04-24T09:37:29;0.77;;;0.77;;
23702;SDS011;12030;50.376;8.762;2023-04-24T09:40:07;0.97;;;0.80;;
23702;SDS011;12030;50.376;8.762;2023-04-24T09:42:44;1.47;;;0.83;;
23702;SDS011;12030;50.376;8.762;2023-04-24T09:45:34;0.80;;;0.80;;
23702;SDS011;12030;50.376;8.762;2023-04-24T09:48:01;3.50;;;1.07;;
23702;SDS011;12030;50.376;8.762;2023-04-24T09:50:29;2.73;;;0.77;;
23702;SDS011;12030;50.376;8.762;2023-04-24T09:52:57;0.90;;;0.60;;
23702;SDS011;12030;50.376;8.762;2023-04-24T09:55:24;1.57;;;0.80;;
23702;SDS011;12030;50.376;8.762;2023-04-24T09:57:54;0.63;;;0.63;;
23702;SDS011;12030;50.376;8.762;2023-04-24T10:00:22;0.73;;;0.50;;
23702;SDS011;12030;50.376;8.762;2023-04-24T10:02:55;1.83;;;0.60;;
23702;SDS011;12030;50.376;8.762;2023-04-24T10:05:31;1.10;;;0.83;;
23702;SDS011;12030;50.376;8.762;2023-04-24T10:10:42;0.40;;;0.40;;
23702;SDS011;12030;50.376;8.762;2023-04-24T10:13:09;0.90;;;0.70;;
23702;SDS011;12030;50.376;8.762;2023-04-24T10:15:35;0.50;;;0.50;;
23702;SDS011;12030;50.376;8.762;2023-04-24T10:18:02;1.23;;;0.60;;
23702;SDS011;12030;50.376;8.762;2023-04-24T10:20:31;1.03;;;0.50;;
23702;SDS011;12030;50.376;8.762;2023-04-24T10:22:58;1.00;;;0.50;;
23702;SDS011;12030;50.376;8.762;2023-04-24T10:25:31;0.50;;;0.40;;
23702;SDS011;12030;50.376;8.762;2023-04-24T10:27:59;0.70;;;0.50;;
23702;SDS011;12030;50.376;8.762;2023-04-24T10:30:26;1.53;;;0.60;;
23702;SDS011;12030;50.376;8.762;2023-04-24T10:32:57;1.27;;;0.50;;
23702;SDS011;12030;50.376;8.762;2023-04-24T10:35:24;0.80;;;0.40;;
23702;SDS011;12030;50.376;8.762;2023-04-24T10:37:56;0.57;;;0.40;;
23702;SDS011;12030;50.376;8.762;2023-04-24T10:40:27;0.97;;;0.60;;
23702;SDS011;12030;50.376;8.762;2023-04-24T10:42:56;0.60;;;0.30;;
23702;SDS011;12030;50.376;8.762;2023-04-24T10:45:22;0.60;;;0.20;;
23702;SDS011;12030;50.376;8.762;2023-04-24T10:47:59;0.40;;;0.40;;
23702;SDS011;12030;50.376;8.762;2023-04-24T10:50:48;0.77;;;0.30;;
23702;SDS011;12030;50.376;8.762;2023-04-24T10:53:17;0.63;;;0.43;;
23702;SDS011;12030;50.376;8.762;2023-04-24T10:56:04;0.40;;;0.33;;
23702;SDS011;12030;50.376;8.762;2023-04-24T11:01:03;0.60;;;0.40;;
23702;SDS011;12030;50.376;8.762;2023-04-24T11:03:29;0.80;;;0.30;;
23702;SDS011;12030;50.376;8.762;2023-04-24T11:06:07;0.60;;;0.40;;
23702;SDS011;12030;50.376;8.762;2023-04-24T11:08:42;0.90;;;0.47;;
23702;SDS011;12030;50.376;8.762;2023-04-24T11:11:10;1.03;;;0.57;;
23702;SDS011;12030;50.376;8.762;2023-04-24T11:16:25;2.07;;;0.70;;
23702;SDS011;12030;50.376;8.762;2023-04-24T11:18:52;0.60;;;0.40;;
23702;SDS011;12030;50.376;8.762;2023-04-24T11:21:24;0.77;;;0.47;;
23702;SDS011;12030;50.376;8.762;2023-04-24T11:23:51;0.60;;;0.23;;
23702;SDS011;12030;50.376;8.762;2023-04-24T11:26:17;0.70;;;0.50;;
23702;SDS011;12030;50.376;8.762;2023-04-24T11:28:49;0.40;;;0.30;;
23702;SDS011;12030;50.376;8.762;2023-04-24T11:34:19;0.80;;;0.47;;
23702;SDS011;12030;50.376;8.762;2023-04-24T11:36:46;0.53;;;0.30;;
23702;SDS011;12030;50.376;8.762;2023-04-24T11:39:12;1.17;;;0.50;;
23702;SDS011;12030;50.376;8.762;2023-04-24T11:41:39;1.33;;;0.50;;
23702;SDS011;12030;50.376;8.762;2023-04-24T11:44:08;0.47;;;0.40;;
23702;SDS011;12030;50.376;8.762;2023-04-24T11:46:34;0.40;;;0.33;;
23702;SDS011;12030;50.376;8.762;2023-04-24T11:49:00;0.53;;;0.40;;
23702;SDS011;12030;50.376;8.762;2023-04-24T11:51:26;0.40;;;0.40;;
23702;SDS011;12030;50.376;8.762;2023-04-24T11:53:53;0.60;;;0.50;;
23702;SDS011;12030;50.376;8.762;2023-04-24T11:56:21;0.83;;;0.50;;
23702;SDS011;12030;50.376;8.762;2023-04-24T11:58:47;2.70;;;0.60;;
23702;SDS011;12030;50.376;8.762;2023-04-24T12:01:13;0.97;;;0.80;;
23702;SDS011;12030;50.376;8.762;2023-04-24T12:03:40;0.90;;;0.60;;
23702;SDS011;12030;50.376;8.762;2023-04-24T12:06:09;1.77;;;0.67;;
23702;SDS011;12030;50.376;8.762;2023-04-24T12:08:36;0.97;;;0.60;;
23702;SDS011;12030;50.376;8.762;2023-04-24T12:11:02;0.80;;;0.60;;
23702;SDS011;12030;50.376;8.762;2023-04-24T12:13:29;0.80;;;0.63;;
23702;SDS011;12030;50.376;8.762;2023-04-24T12:15:56;1.27;;;0.70;;
23702;SDS011;12030;50.376;8.762;2023-04-24T12:18:22;1.10;;;0.90;;
23702;SDS011;12030;50.376;8.762;2023-04-24T12:20:48;0.63;;;0.63;;
23702;SDS011;12030;50.376;8.762;2023-04-24T12:23:14;1.17;;;0.80;;
23702;SDS011;12030;50.376;8.762;2023-04-24T12:25:40;1.00;;;0.90;;
23702;SDS011;12030;50.376;8.762;2023-04-24T12:30:33;1.03;;;0.90;;
23702;SDS011;12030;50.376;8.762;2023-04-24T12:33:01;1.13;;;0.90;;
23702;SDS011;12030;50.376;8.762;2023-04-24T12:35:29;0.93;;;0.83;;
23702;SDS011;12030;50.376;8.762;2023-04-24T12:38:05;0.80;;;0.80;;
23702;SDS011;12030;50.376;8.762;2023-04-24T12:40:34;0.73;;;0.30;;
23702;SDS011;12030;50.376;8.762;2023-04-24T12:43:00;1.23;;;0.30;;
23702;SDS011;12030;50.376;8.762;2023-04-24T12:45:26;0.40;;;0.23;;
23702;SDS011;12030;50.376;8.762;2023-04-24T12:47:52;0.87;;;0.33;;
23702;SDS011;12030;50.376;8.762;2023-04-24T12:50:18;0.73;;;0.40;;
23702;SDS011;12030;50.376;8.762;2023-04-24T12:52:44;0.70;;;0.47;;
23702;SDS011;12030;50.376;8.762;2023-04-24T12:55:10;1.70;;;0.47;;
23702;SDS011;12030;50.376;8.762;2023-04-24T12:57:37;0.40;;;0.33;;
23702;SDS011;12030;50.376;8.762;2023-04-24T13:00:04;0.80;;;0.30;;
23702;SDS011;12030;50.376;8.762;2023-04-24T13:02:31;0.97;;;0.30;;
23702;SDS011;12030;50.376;8.762;2023-04-24T13:05:00;1.53;;;0.50;;
23702;SDS011;12030;50.376;8.762;2023-04-24T13:07:26;0.60;;;0.40;;
23702;SDS011;12030;50.376;8.762;2023-04-24T13:09:52;0.63;;;0.40;;
23702;SDS011;12030;50.376;8.762;2023-04-24T13:12:19;0.30;;;0.30;;
23702;SDS011;12030;50.376;8.762;2023-04-24T13:14:45;0.50;;;0.50;;
23702;SDS011;12030;50.376;8.762;2023-04-24T13:17:11;0.53;;;0.40;;
23702;SDS011;12030;50.376;8.762;2023-04-24T13:19:37;1.40;;;0.47;;
23702;SDS011;12030;50.376;8.762;2023-04-24T13:22:04;0.80;;;0.30;;
23702;SDS011;12030;50.376;8.762;2023-04-24T13:24:30;0.90;;;0.60;;
23702;SDS011;12030;50.376;8.762;2023-04-24T13:26:56;1.03;;;0.53;;
23702;SDS011;12030;50.376;8.762;2023-04-24T13:29:23;0.80;;;0.70;;
23702;SDS011;12030;50.376;8.762;2023-04-24T13:31:52;0.70;;;0.63;;
23702;SDS011;12030;50.376;8.762;2023-04-24T13:34:20;1.20;;;0.93;;
23702;SDS011;12030;50.376;8.762;2023-04-24T13:36:49;1.67;;;0.90;;
23702;SDS011;12030;50.376;8.762;2023-04-24T13:39:16;2.33;;;1.63;;
23702;SDS011;12030;50.376;8.762;2023-04-24T13:41:42;1.67;;;1.50;;
23702;SDS011;12030;50.376;8.762;2023-04-24T13:44:07;2.23;;;1.53;;
23702;SDS011;12030;50.376;8.762;2023-04-24T13:46:33;2.27;;;1.63;;
23702;SDS011;12030;50.376;8.762;2023-04-24T13:48:59;1.67;;;1.47;;
23702;SDS011;12030;50.376;8.762;2023-04-24T13:51:25;2.73;;;1.77;;
23702;SDS011;12030;50.376;8.762;2023-04-24T13:53:54;3.10;;;1.60;;
23702;SDS011;12030;50.376;8.762;2023-04-24T13:56:20;3.83;;;1.93;;
23702;SDS011;12030;50.376;8.762;2023-04-24T13:58:46;1.70;;;1.40;;
23702;SDS011;12030;50.376;8.762;2023-04-24T14:01:12;3.03;;;1.83;;
23702;SDS011;12030;50.376;8.762;2023-04-24T14:03:39;1.77;;;1.67;;
23702;SDS011;12030;50.376;8.762;2023-04-24T14:06:05;3.30;;;1.77;;
23702;SDS011;12030;50.376;8.762;2023-04-24T14:08:31;3.23;;;2.37;;
23702;SDS011;12030;50.376;8.762;2023-04-24T14:10:57;4.90;;;2.30;;
23702;SDS011;12030;50.376;8.762;2023-04-24T14:13:22;4.67;;;2.30;;
23702;SDS011;12030;50.376;8.762;2023-04-24T14:15:48;2.93;;;2.10;;
23702;SDS011;12030;50.376;8.762;2023-04-24T14:18:14;5.17;;;2.43;;
23702;SDS011;12030;50.376;8.762;2023-04-24T14:20:39;2.93;;;1.80;;
23702;SDS011;12030;50.376;8.762;2023-04-24T14:23:05;4.00;;;2.07;;
23702;SDS011;12030;50.376;8.762;2023-04-24T14:25:31;4.93;;;2.10;;
23702;SDS011;12030;50.376;8.762;2023-04-24T14:27:56;4.70;;;2.03;;
23702;SDS011;12030;50.376;8.762;2023-04-24T14:30:22;5.17;;;1.70;;
23702;SDS011;12030;50.376;8.762;2023-04-24T14:32:48;2.27;;;1.63;;
23702;SDS011;12030;50.376;8.762;2023-04-24T14:35:13;3.03;;;1.90;;
23702;SDS011;12030;50.376;8.762;2023-04-24T14:37:39;3.40;;;1.83;;
23702;SDS011;12030;50.376;8.762;2023-04-24T14:40:08;1.97;;;1.60;;
23702;SDS011;12030;50.376;8.762;2023-04-24T14:42:34;5.83;;;2.03;;
23702;SDS011;12030;50.376;8.762;2023-04-24T14:45:00;2.60;;;1.80;;
23702;SDS011;12030;50.376;8.762;2023-04-24T14:47:26;4.20;;;2.13;;
23702;SDS011;12030;50.376;8.762;2023-04-24T14:49:52;4.67;;;2.10;;
23702;SDS011;12030;50.376;8.762;2023-04-24T14:52:18;3.97;;;2.10;;
23702;SDS011;12030;50.376;8.762;2023-04-24T14:54:43;4.03;;;2.33;;
23702;SDS011;12030;50.376;8.762;2023-04-24T14:57:09;3.80;;;2.10;;
23702;SDS011;12030;50.376;8.762;2023-04-24T14:59:35;2.53;;;1.73;;